createdAt,value
2022-09-14T00:10:18.521Z,16.62
2022-09-14T00:27:06.934Z,16.21
2022-09-14T00:44:03.818Z,15.85
2022-09-14T01:00:56.114Z,15.64
2022-09-14T01:17:51.988Z,15.47
2022-09-14T01:34:47.549Z,15.35
2022-09-14T01:51:43.035Z,15.23
2022-09-14T02:08:33.582Z,15.20
2022-09-14T02:25:22.726Z,15.50
2022-09-14T02:42:19.828Z,15.64
2022-09-14T02:59:08.190Z,15.67
2022-09-14T03:15:57.619Z,15.74
2022-09-14T03:32:46.733Z,15.61
2022-09-14T03:49:36.862Z,15.52
2022-09-14T04:06:26.435Z,15.40
2022-09-14T04:23:16.946Z,15.31
2022-09-14T04:40:06.595Z,15.29
2022-09-14T04:56:55.872Z,15.19
2022-09-14T05:13:49.534Z,15.20
2022-09-14T05:30:42.910Z,15.21
2022-09-14T05:47:37.085Z,15.37
2022-09-14T06:04:28.303Z,15.63
2022-09-14T06:21:19.486Z,15.94
2022-09-14T06:38:07.956Z,16.36
2022-09-14T06:54:57.043Z,16.32
2022-09-14T07:11:46.361Z,16.44
2022-09-14T07:28:34.643Z,16.42
2022-09-14T07:45:23.911Z,16.58
2022-09-14T08:02:13.228Z,17.19
2022-09-14T08:19:04.573Z,17.27
2022-09-14T08:35:59.832Z,17.11
2022-09-14T08:52:50.806Z,17.59
2022-09-14T09:09:46.973Z,17.81
2022-09-14T09:26:35.988Z,17.95
2022-09-14T09:43:45.813Z,18.19
2022-09-14T10:00:37.592Z,18.27
2022-09-14T10:17:26.914Z,18.46
2022-09-14T10:34:20.913Z,18.41
2022-09-14T10:51:27.455Z,18.34
2022-09-14T11:08:26.196Z,18.43
2022-09-14T11:25:18.852Z,18.58
2022-09-14T11:42:11.396Z,18.64
2022-09-14T11:59:01.557Z,18.64
2022-09-14T12:16:02.888Z,18.57
2022-09-14T12:32:54.070Z,18.76
2022-09-14T12:49:44.242Z,18.82
2022-09-14T13:06:49.317Z,18.70
2022-09-14T13:23:45.650Z,18.71
2022-09-14T13:40:34.546Z,18.80
2022-09-14T13:57:26.941Z,18.83
2022-09-14T14:14:28.856Z,18.70
2022-09-14T14:31:22.117Z,18.70
2022-09-14T14:48:15.542Z,18.80
2022-09-14T15:05:05.711Z,18.73
2022-09-14T15:22:00.124Z,18.73
2022-09-14T15:38:49.822Z,18.60
2022-09-14T15:55:41.376Z,18.47
2022-09-14T16:12:31.653Z,18.29
2022-09-14T16:29:24.553Z,18.01
2022-09-14T16:46:18.057Z,17.79
2022-09-14T17:03:05.039Z,17.52
2022-09-14T17:19:53.616Z,17.19
2022-09-14T17:36:45.688Z,16.93
2022-09-14T17:53:37.854Z,16.74
2022-09-14T18:10:27.892Z,16.60
2022-09-14T18:27:19.255Z,16.46
2022-09-14T18:44:09.573Z,16.35
2022-09-14T19:00:59.150Z,16.29
2022-09-14T19:17:48.511Z,16.32
2022-09-14T19:34:39.193Z,16.31
2022-09-14T19:51:31.246Z,16.20
2022-09-14T20:08:20.258Z,16.12
2022-09-14T20:25:10.737Z,16.11
2022-09-14T20:42:01.208Z,16.05
2022-09-14T20:58:50.925Z,16.09
2022-09-14T21:15:39.442Z,16.05
2022-09-14T21:32:28.331Z,16.08
2022-09-14T21:49:21.762Z,16.09
2022-09-14T22:06:13.353Z,16.08
2022-09-14T22:23:02.248Z,16.11
2022-09-14T22:39:50.682Z,16.15
2022-09-14T22:56:42.654Z,16.18
2022-09-14T23:13:33.045Z,16.13
2022-09-14T23:30:23.195Z,16.05
2022-09-14T23:47:13.115Z,15.97
